Nortonville, Illinois
Current Conditions -  °F | °C
As of 12:15 AM on Monday 22 Dec 2014 (Local Time) from KIJX Reporting Station
Overcast Overcast  
Wind Chill: 34°   Ceiling: 4400
Heat Index: 40°   Visibility: 10mi
Dew Point: 33°   Wind: 10mph
Humidity: 77%   Direction: 140°SE
Pressure: 29.92"   Gusts: NA
Location:  39.5633°N, 90.2043°W
Report Text: KIJX 220615Z AUTO 14009KT 10SM OVC044 05/01 A2992 RMK AO2 T00450007
Loading
Personal Weather Stations






























Interactive Weather Map New forecast layout! Learn more

10-Day Weather Forecast

Advertisements
Track Severe Weather on mobile